Time;durP1;ratioP1;P1;durP2;ratioP2;P2;SDS_P1;SDS_P2;PMS_P1;PMS_P2;Temp;Humidity;BMP_temperature;BMP_pressure;BME280_temperature;BME280_humidity;BME280_pressure;Samples;Min_cycle;Max_cycle;Signal;HPM_P1;HPM_P2
2020/12/14 00:02:12;;;;;;;77.25;28.75;;;5.30;96.00;;;;;;4973925;28;20185;-76
2020/12/14 00:04:39;;;;;;;84.75;27.65;;;5.30;96.00;;;;;;4995273;28;20032;-76
2020/12/14 00:07:05;;;;;;;71.22;26.38;;;5.30;96.00;;;;;;4992590;28;20117;-76
2020/12/14 00:09:31;;;;;;;85.72;26.75;;;5.30;96.00;;;;;;4978667;28;20098;-76
2020/12/14 00:12:01;;;;;;;77.20;26.70;;;5.20;96.00;;;;;;5011312;28;20037;-76
2020/12/14 00:14:27;;;;;;;74.65;25.88;;;5.20;96.10;;;;;;5010891;28;20482;-76
2020/12/14 00:16:53;;;;;;;69.20;25.73;;;5.30;96.10;;;;;;4996171;28;20030;-76
2020/12/14 00:19:19;;;;;;;68.95;24.85;;;5.20;96.10;;;;;;4992514;28;20026;-76
2020/12/14 00:21:45;;;;;;;76.03;26.83;;;5.20;96.10;;;;;;4992655;28;20448;-76
2020/12/14 00:24:11;;;;;;;65.72;24.45;;;5.20;96.10;;;;;;4995494;28;20065;-76
2020/12/14 00:26:36;;;;;;;71.03;25.25;;;5.20;96.10;;;;;;4995605;28;20406;-76
2020/12/14 00:29:03;;;;;;;71.70;27.60;;;5.20;96.10;;;;;;4977821;28;20400;-76
2020/12/14 00:31:29;;;;;;;70.93;25.33;;;5.20;96.10;;;;;;4994077;28;20030;-77
2020/12/14 00:33:54;;;;;;;62.28;24.17;;;5.20;96.10;;;;;;5007558;28;20029;-76
2020/12/14 00:36:20;;;;;;;67.57;25.30;;;5.20;96.10;;;;;;4991513;28;20109;-76
2020/12/14 00:38:46;;;;;;;65.57;25.52;;;5.20;95.90;;;;;;5008807;28;20623;-76
2020/12/14 00:41:18;;;;;;;64.30;25.25;;;5.30;96.00;;;;;;5006024;28;20052;-77
2020/12/14 00:43:44;;;;;;;62.40;25.58;;;5.20;96.00;;;;;;4989088;28;20088;-76
2020/12/14 00:46:14;;;;;;;66.95;25.67;;;5.20;96.00;;;;;;4992181;28;20109;-76
2020/12/14 00:48:40;;;;;;;64.63;24.05;;;5.20;96.10;;;;;;5002722;28;20029;-76
2020/12/14 00:51:06;;;;;;;58.75;23.95;;;5.20;96.00;;;;;;4991793;28;20373;-76
2020/12/14 00:53:32;;;;;;;58.70;23.60;;;5.20;96.00;;;;;;4974313;28;20080;-76
2020/12/14 00:56:04;;;;;;;55.95;23.50;;;5.20;96.00;;;;;;4993614;28;20371;-76
2020/12/14 00:58:30;;;;;;;;;;;5.20;96.00;;;;;;4970797;28;20037;-75
2020/12/14 01:00:56;;;;;;;50.47;21.52;;;5.20;96.00;;;;;;4987181;28;19916;-76
2020/12/14 01:03:23;;;;;;;50.05;22.40;;;5.20;96.10;;;;;;4976764;28;20037;-76
2020/12/14 01:05:52;;;;;;;51.17;22.40;;;5.20;96.10;;;;;;4991706;28;20030;-75
2020/12/14 01:08:21;;;;;;;50.22;22.40;;;5.20;96.10;;;;;;4989481;28;20026;-76
2020/12/14 01:10:50;;;;;;;50.25;21.63;;;5.30;96.10;;;;;;5009639;28;20030;-76
2020/12/14 01:13:16;;;;;;;50.67;20.77;;;5.20;96.10;;;;;;4993510;28;20022;-75
2020/12/14 01:15:42;;;;;;;54.70;24.13;;;5.20;96.10;;;;;;4974990;28;20026;-76
2020/12/14 01:18:09;;;;;;;58.13;23.48;;;5.20;96.00;;;;;;5001067;28;20101;-76
2020/12/14 01:20:34;;;;;;;51.20;22.33;;;5.20;96.00;;;;;;4973506;28;20088;-76
2020/12/14 01:23:00;;;;;;;67.80;25.63;;;5.20;96.10;;;;;;4995878;28;20477;-76
2020/12/14 01:25:26;;;;;;;62.60;25.80;;;5.20;96.00;;;;;;4991069;28;20034;-76
2020/12/14 01:27:51;;;;;;;64.38;26.70;;;5.30;96.00;;;;;;4987904;28;20029;-76
2020/12/14 01:30:17;;;;;;;61.70;26.50;;;5.30;96.00;;;;;;4991636;28;20022;-76
2020/12/14 01:32:43;;;;;;;61.72;26.42;;;5.30;96.00;;;;;;4992209;28;20502;-77
2020/12/14 01:35:08;;;;;;;62.70;25.38;;;5.30;95.90;;;;;;4978825;28;20030;-76
2020/12/14 01:37:34;;;;;;;61.25;26.40;;;5.30;95.90;;;;;;4976000;28;20429;-76
2020/12/14 01:40:00;;;;;;;62.92;25.83;;;5.30;95.90;;;;;;4988792;28;20033;-76
2020/12/14 01:42:25;;;;;;;59.45;25.17;;;5.30;95.80;;;;;;5005207;28;20179;-76
2020/12/14 01:44:51;;;;;;;59.90;26.65;;;5.30;95.90;;;;;;4994369;28;20029;-76
2020/12/14 01:47:34;;;;;;;55.03;26.23;;;5.30;95.90;;;;;;4988681;28;20026;-76
2020/12/14 01:50:00;;;;;;;53.28;25.02;;;5.30;95.90;;;;;;5000531;28;20054;-76
2020/12/14 01:52:27;;;;;;;54.47;24.80;;;5.30;95.90;;;;;;4985092;28;20141;-77
2020/12/14 01:54:55;;;;;;;51.88;24.35;;;5.30;95.90;;;;;;4988481;28;20048;-76
2020/12/14 01:57:21;;;;;;;57.40;23.92;;;5.30;95.90;;;;;;4975288;28;20021;-76
2020/12/14 01:59:47;;;;;;;55.17;24.45;;;5.30;95.90;;;;;;5005473;28;20429;-77
2020/12/14 02:02:13;;;;;;;51.88;23.23;;;5.30;95.90;;;;;;5006109;28;20054;-76
2020/12/14 02:04:39;;;;;;;51.78;22.75;;;5.30;95.90;;;;;;5010185;28;20037;-76
2020/12/14 02:07:05;;;;;;;51.45;23.00;;;5.30;95.90;;;;;;4985740;28;20046;-76
2020/12/14 02:09:30;;;;;;;47.47;21.25;;;5.40;95.90;;;;;;4975197;28;20026;-75
2020/12/14 02:11:56;;;;;;;45.80;22.42;;;5.30;95.90;;;;;;4972266;28;20525;-76
2020/12/14 02:14:22;;;;;;;51.83;23.15;;;5.30;95.90;;;;;;4991260;28;20042;-76
2020/12/14 02:16:48;;;;;;;51.40;22.60;;;5.40;95.80;;;;;;4990761;28;20037;-76
2020/12/14 02:19:13;;;;;;;47.20;22.17;;;5.30;95.80;;;;;;4977909;28;20041;-75
2020/12/14 02:21:39;;;;;;;46.58;21.35;;;5.40;95.70;;;;;;4992990;28;20034;-75
2020/12/14 02:24:21;;;;;;;48.88;21.08;;;5.40;95.70;;;;;;4978231;28;20065;-77
2020/12/14 02:26:48;;;;;;;48.75;22.80;;;5.40;95.70;;;;;;4989381;28;20033;-77
2020/12/14 02:29:18;;;;;;;47.28;23.60;;;5.40;95.70;;;;;;4987213;28;20030;-77
2020/12/14 02:31:44;;;;;;;48.38;21.30;;;5.40;95.70;;;;;;4988540;28;20069;-77
2020/12/14 02:34:10;;;;;;;50.00;21.90;;;5.40;95.60;;;;;;5000948;28;20036;-77
2020/12/14 02:36:37;;;;;;;51.45;22.08;;;5.40;95.60;;;;;;4987453;28;20030;-77
2020/12/14 02:39:04;;;;;;;46.40;21.15;;;5.40;95.60;;;;;;4989578;28;20390;-77
2020/12/14 02:41:30;;;;;;;49.90;23.27;;;5.40;95.60;;;;;;4985164;28;20042;-77
2020/12/14 02:43:55;;;;;;;45.35;20.67;;;5.40;95.60;;;;;;4991767;28;20099;-77
2020/12/14 02:46:22;;;;;;;45.58;20.88;;;5.30;95.60;;;;;;4990761;28;20096;-77
2020/12/14 02:48:48;;;;;;;50.75;23.13;;;5.40;95.60;;;;;;4974516;28;20034;-78
2020/12/14 02:51:20;;;;;;;46.55;21.77;;;5.30;95.60;;;;;;4971823;28;20041;-77
2020/12/14 02:53:47;;;;;;;50.75;23.17;;;5.30;95.50;;;;;;4991570;28;20029;-77
2020/12/14 02:56:13;;;;;;;48.90;22.10;;;5.30;95.50;;;;;;4986790;28;20026;-77
2020/12/14 02:58:39;;;;;;;46.10;21.55;;;5.30;95.50;;;;;;4990465;28;20026;-77
2020/12/14 03:01:04;;;;;;;48.05;22.60;;;5.30;95.60;;;;;;4975436;28;20022;-77
2020/12/14 03:03:30;;;;;;;42.72;21.20;;;5.20;95.50;;;;;;4976410;28;20021;-77
2020/12/14 03:05:56;;;;;;;44.10;20.50;;;5.30;95.50;;;;;;5003932;28;20516;-77
2020/12/14 03:08:22;;;;;;;42.50;20.30;;;5.30;95.40;;;;;;4975113;28;20061;-77
2020/12/14 03:10:48;;;;;;;46.45;21.25;;;5.30;95.50;;;;;;4988608;28;20034;-78
2020/12/14 03:13:13;;;;;;;41.47;21.02;;;5.20;95.40;;;;;;4987031;28;20022;-77
2020/12/14 03:15:39;;;;;;;40.17;18.95;;;5.20;95.40;;;;;;4974876;28;20091;-77
2020/12/14 03:18:06;;;;;;;40.88;19.10;;;5.20;95.40;;;;;;5007493;28;20469;-77
2020/12/14 03:20:33;;;;;;;42.15;19.45;;;5.30;95.40;;;;;;4990227;28;20029;-78
2020/12/14 03:22:59;;;;;;;38.00;18.50;;;5.20;95.30;;;;;;5006180;28;20080;-77
2020/12/14 03:25:24;;;;;;;41.30;20.48;;;5.30;95.40;;;;;;4991709;28;20026;-77
2020/12/14 03:27:50;;;;;;;36.45;18.40;;;5.20;95.30;;;;;;4986266;28;20026;-78
2020/12/14 03:30:16;;;;;;;39.72;19.15;;;5.20;95.20;;;;;;4987212;28;20057;-77
2020/12/14 03:32:41;;;;;;;38.20;18.95;;;5.20;95.20;;;;;;4976038;28;20034;-78
2020/12/14 03:35:07;;;;;;;33.25;17.70;;;5.30;95.20;;;;;;4987650;28;20026;-77
2020/12/14 03:37:33;;;;;;;39.00;18.58;;;5.30;95.20;;;;;;4973754;28;20092;-77
2020/12/14 03:39:59;;;;;;;35.17;18.25;;;5.30;95.10;;;;;;4991725;28;20109;-77
2020/12/14 03:42:25;;;;;;;36.33;18.35;;;5.30;95.10;;;;;;4990936;28;20077;-77
2020/12/14 03:44:50;;;;;;;38.30;18.00;;;5.30;95.10;;;;;;4994534;28;20061;-78
2020/12/14 03:47:16;;;;;;;33.00;17.15;;;5.30;95.00;;;;;;5009973;28;20155;-77
2020/12/14 03:49:42;;;;;;;35.28;17.30;;;5.30;95.00;;;;;;4993265;28;20513;-77
2020/12/14 03:52:07;;;;;;;31.73;16.35;;;5.30;95.00;;;;;;4988488;28;20034;-77
2020/12/14 03:54:33;;;;;;;35.67;17.05;;;5.30;94.90;;;;;;4976795;28;20025;-77
2020/12/14 03:56:59;;;;;;;34.35;17.05;;;5.30;94.90;;;;;;4988251;28;20129;-78
2020/12/14 03:59:24;;;;;;;32.67;16.45;;;5.30;94.80;;;;;;5005136;28;20030;-77
2020/12/14 04:01:55;;;;;;;31.55;16.65;;;5.30;94.60;;;;;;4979392;28;20030;-77
2020/12/14 04:04:21;;;;;;;33.33;16.33;;;5.30;94.70;;;;;;4992594;28;20037;-78
2020/12/14 04:06:47;;;;;;;28.55;14.45;;;5.30;94.60;;;;;;4979163;28;20038;-78
2020/12/14 04:09:13;;;;;;;29.42;15.48;;;5.30;94.60;;;;;;4990476;28;20516;-77
2020/12/14 04:11:38;;;;;;;29.25;15.55;;;5.30;94.60;;;;;;4991970;28;20061;-77
2020/12/14 04:14:04;;;;;;;28.25;14.45;;;5.30;94.60;;;;;;4988091;28;20159;-76
2020/12/14 04:16:29;;;;;;;31.58;15.57;;;5.40;94.50;;;;;;4991669;28;20457;-77
2020/12/14 04:18:55;;;;;;;28.88;15.38;;;5.40;94.40;;;;;;4991682;28;20033;-77
2020/12/14 04:21:21;;;;;;;27.90;14.82;;;5.40;94.40;;;;;;4991038;28;20045;-76
2020/12/14 04:23:46;;;;;;;25.98;13.85;;;5.40;94.40;;;;;;5012919;28;20033;-77
2020/12/14 04:26:15;;;;;;;29.60;14.57;;;5.40;94.30;;;;;;4976518;28;20030;-76
2020/12/14 04:28:41;;;;;;;28.77;14.68;;;5.40;94.40;;;;;;4991461;28;20029;-77
2020/12/14 04:31:07;;;;;;;27.58;14.77;;;5.40;94.30;;;;;;5007577;28;20029;-77
2020/12/14 04:33:32;;;;;;;26.67;14.00;;;5.40;94.20;;;;;;5008695;28;20029;-77
2020/12/14 04:35:58;;;;;;;26.50;15.18;;;5.30;94.10;;;;;;4993938;28;20037;-77
2020/12/14 04:38:24;;;;;;;25.95;13.90;;;5.40;94.10;;;;;;4993390;28;20033;-77
2020/12/14 04:40:51;;;;;;;26.85;14.35;;;5.40;94.10;;;;;;4972457;28;20061;-77
2020/12/14 04:43:17;;;;;;;24.38;13.73;;;5.40;94.10;;;;;;5015241;28;20559;-77
2020/12/14 04:45:45;;;;;;;24.85;13.35;;;5.40;94.10;;;;;;4993756;28;20101;-76
2020/12/14 04:48:12;;;;;;;24.00;13.27;;;5.40;94.10;;;;;;4997180;28;20045;-77
2020/12/14 04:50:39;;;;;;;24.63;13.55;;;5.40;94.10;;;;;;4975806;28;20030;-77
2020/12/14 04:53:05;;;;;;;26.85;13.55;;;5.40;94.00;;;;;;5019610;28;20034;-76
2020/12/14 04:55:35;;;;;;;23.15;12.77;;;5.40;93.90;;;;;;4994354;28;20037;-77
2020/12/14 04:58:03;;;;;;;26.65;13.93;;;5.40;93.90;;;;;;4991060;28;20055;-77
2020/12/14 05:00:29;;;;;;;25.55;13.05;;;5.40;93.90;;;;;;4972240;28;20030;-77
2020/12/14 05:02:56;;;;;;;23.55;12.85;;;5.40;93.90;;;;;;5004585;28;20037;-77
2020/12/14 05:05:23;;;;;;;23.88;13.18;;;5.40;93.90;;;;;;4977844;28;20120;-77
2020/12/14 05:07:49;;;;;;;23.08;12.20;;;5.40;93.80;;;;;;4975750;28;20515;-77
2020/12/14 05:10:15;;;;;;;22.00;12.55;;;5.40;93.80;;;;;;4992427;28;20060;-78
2020/12/14 05:12:45;;;;;;;23.98;12.07;;;5.40;93.80;;;;;;4996629;28;20034;-78
2020/12/14 05:15:28;;;;;;;23.70;11.70;;;5.40;93.70;;;;;;5013582;28;20041;-77
2020/12/14 05:18:11;;;;;;;22.27;12.20;;;5.40;93.70;;;;;;4996286;28;20041;-77
2020/12/14 05:20:38;;;;;;;18.75;10.65;;;5.40;93.50;;;;;;4996551;28;20026;-79
2020/12/14 05:23:07;;;;;;;24.02;11.85;;;5.40;93.60;;;;;;4979775;28;20065;-78
2020/12/14 05:25:33;;;;;;;21.30;11.40;;;5.40;93.50;;;;;;4998726;28;20085;-78
2020/12/14 05:28:12;;;;;;;21.02;10.68;;;5.40;93.50;;;;;;4998173;28;20034;-78
2020/12/14 05:30:49;;;;;;;20.42;10.95;;;5.40;93.50;;;;;;4981737;28;20730;-78
2020/12/14 05:33:23;;;;;;;19.48;10.75;;;5.40;93.40;;;;;;4999850;28;20023;-79
2020/12/14 05:35:49;;;;;;;20.00;10.60;;;5.30;93.40;;;;;;4998109;28;20029;-78
2020/12/14 05:38:28;;;;;;;20.33;10.95;;;5.30;93.30;;;;;;5017986;28;20089;-78
2020/12/14 05:41:05;;;;;;;22.75;10.50;;;5.40;93.50;;;;;;5002261;28;20018;-78
2020/12/14 05:43:34;;;;;;;16.83;9.35;;;5.30;93.30;;;;;;5010094;28;20088;-77
2020/12/14 05:46:15;;;;;;;17.23;10.60;;;5.40;93.30;;;;;;5005979;28;20018;-78
2020/12/14 05:48:41;;;;;;;16.93;10.40;;;5.30;93.20;;;;;;4992694;28;20045;-79
2020/12/14 05:51:08;;;;;;;20.90;10.75;;;5.30;93.30;;;;;;4994046;28;20296;-77
2020/12/14 05:53:38;;;;;;;16.92;10.30;;;5.30;93.20;;;;;;4992482;28;20061;-77
2020/12/14 05:56:08;;;;;;;17.67;10.00;;;5.30;93.20;;;;;;5007302;28;20034;-77
2020/12/14 05:58:36;;;;;;;17.42;9.10;;;5.40;93.20;;;;;;4995092;28;20117;-78
2020/12/14 06:01:07;;;;;;;19.42;9.82;;;5.40;93.20;;;;;;4988604;28;20040;-80
2020/12/14 06:03:33;;;;;;;17.40;9.13;;;5.40;93.10;;;;;;4990395;28;20505;-78
2020/12/14 06:06:00;;;;;;;20.02;9.55;;;5.40;93.20;;;;;;5014588;28;20045;-78
2020/12/14 06:08:32;;;;;;;15.13;8.43;;;5.40;93.30;;;;;;4993733;28;20705;-78
2020/12/14 06:10:58;;;;;;;;;;;5.40;93.30;;;;;;4993524;28;20041;-78
2020/12/14 06:13:30;;;;;;;17.20;9.18;;;5.40;93.40;;;;;;4996209;28;19913;-78
2020/12/14 06:16:00;;;;;;;17.52;9.10;;;5.40;93.50;;;;;;4993537;28;20502;-77
2020/12/14 06:18:33;;;;;;;16.17;8.95;;;5.50;93.40;;;;;;5010818;28;20041;-78
2020/12/14 06:21:02;;;;;;;16.17;9.27;;;5.50;93.40;;;;;;4994616;28;20026;-76
2020/12/14 06:23:39;;;;;;;16.55;8.70;;;5.50;93.30;;;;;;4999859;28;20053;-77
2020/12/14 06:26:07;;;;;;;25.95;12.85;;;5.50;93.30;;;;;;5010420;28;20030;-76
2020/12/14 06:28:34;;;;;;;15.95;8.65;;;5.50;93.10;;;;;;4994532;28;20022;-77
2020/12/14 06:31:01;;;;;;;17.02;8.77;;;5.50;93.00;;;;;;4999382;28;20048;-77
2020/12/14 06:33:33;;;;;;;14.05;8.68;;;5.50;92.90;;;;;;5008858;28;20120;-76
2020/12/14 06:36:21;;;;;;;18.08;9.20;;;5.50;92.90;;;;;;4991155;28;20026;-76
2020/12/14 06:38:49;;;;;;;15.18;9.10;;;5.50;92.90;;;;;;5012676;28;20022;-75
2020/12/14 06:41:17;;;;;;;15.13;8.60;;;5.60;92.80;;;;;;4999919;28;20080;-75
2020/12/14 06:43:45;;;;;;;12.23;7.50;;;5.50;92.70;;;;;;5012404;28;20037;-74
2020/12/14 06:46:11;;;;;;;13.18;7.53;;;5.60;92.80;;;;;;4975836;28;20030;-74
2020/12/14 06:48:46;;;;;;;14.88;8.60;;;5.60;92.60;;;;;;4995001;28;20017;-76
2020/12/14 06:51:13;;;;;;;14.80;7.97;;;5.60;92.60;;;;;;4988912;28;20123;-75
2020/12/14 06:53:52;;;;;;;12.10;7.30;;;5.60;92.50;;;;;;5004375;28;20385;-75
2020/12/14 06:56:26;;;;;;;15.18;7.88;;;5.60;92.40;;;;;;4994502;28;20064;-76
2020/12/14 06:58:53;;;;;;;12.40;7.30;;;5.60;92.50;;;;;;4977786;28;20022;-76
2020/12/14 07:01:35;;;;;;;12.93;7.38;;;5.60;92.40;;;;;;4996902;28;20169;-76
2020/12/14 07:04:15;;;;;;;15.55;8.50;;;5.60;92.40;;;;;;4990386;28;20084;-76
2020/12/14 07:06:41;;;;;;;12.77;7.43;;;5.60;92.40;;;;;;4986504;28;20030;-76
2020/12/14 07:09:28;;;;;;;14.27;7.30;;;5.60;92.30;;;;;;4996603;28;20083;-76
2020/12/14 07:12:17;;;;;;;13.02;7.47;;;5.60;92.40;;;;;;4999340;28;20033;-76
2020/12/14 07:14:52;;;;;;;12.50;7.20;;;5.60;92.30;;;;;;4989818;28;20555;-81
2020/12/14 07:17:19;;;;;;;11.68;7.57;;;5.60;92.20;;;;;;5007410;28;20066;-75
2020/12/14 07:19:46;;;;;;;15.18;7.82;;;5.60;92.20;;;;;;4986186;28;20026;-75
2020/12/14 07:22:14;;;;;;;13.57;8.25;;;5.60;92.30;;;;;;5007617;28;20125;-75
2020/12/14 07:24:40;;;;;;;14.35;7.63;;;5.70;92.20;;;;;;4990524;28;20468;-74
2020/12/14 07:27:09;;;;;;;11.50;6.57;;;5.70;92.20;;;;;;4977640;28;20030;-76
2020/12/14 07:29:35;;;;;;;13.10;7.65;;;5.70;92.10;;;;;;4994714;28;20022;-75
2020/12/14 07:32:06;;;;;;;11.18;6.90;;;5.70;92.10;;;;;;5010020;28;20033;-75
2020/12/14 07:34:32;;;;;;;17.17;8.70;;;5.70;91.90;;;;;;4994155;28;20096;-75
2020/12/14 07:36:58;;;;;;;12.13;7.38;;;5.70;91.80;;;;;;4996346;28;20482;-76
2020/12/14 07:39:24;;;;;;;15.35;7.88;;;5.70;91.80;;;;;;4994733;28;20025;-76
2020/12/14 07:41:50;;;;;;;13.48;7.53;;;5.70;91.80;;;;;;4976131;28;20053;-73
2020/12/14 07:44:24;;;;;;;11.45;6.53;;;5.70;91.90;;;;;;5010161;28;20413;-75
2020/12/14 07:46:49;;;;;;;12.43;6.72;;;5.70;91.90;;;;;;4986641;28;20092;-75
2020/12/14 07:49:17;;;;;;;13.80;7.18;;;5.80;91.90;;;;;;4992139;28;20489;-75
2020/12/14 07:51:44;;;;;;;11.57;7.20;;;5.80;91.90;;;;;;4996120;28;20022;-75
2020/12/14 07:54:15;;;;;;;12.18;7.57;;;5.70;91.90;;;;;;4997880;28;20030;-75
2020/12/14 07:56:58;;;;;;;13.23;7.20;;;5.70;91.80;;;;;;4994025;28;20034;-75
2020/12/14 07:59:29;;;;;;;12.40;7.07;;;5.70;91.80;;;;;;4986174;28;20045;-75
2020/12/14 08:01:56;;;;;;;11.55;7.00;;;5.80;91.80;;;;;;4993213;28;20050;-75
2020/12/14 08:04:23;;;;;;;11.20;7.18;;;5.70;91.80;;;;;;4995492;28;20053;-76
2020/12/14 08:06:50;;;;;;;13.60;6.97;;;5.70;91.80;;;;;;4996143;28;20120;-76
2020/12/14 08:09:23;;;;;;;11.23;7.00;;;5.80;91.80;;;;;;4993402;28;20038;-76
2020/12/14 08:11:50;;;;;;;10.77;6.75;;;5.80;91.80;;;;;;5011607;28;20054;-75
2020/12/14 08:14:17;;;;;;;10.48;6.80;;;5.90;91.70;;;;;;4993561;28;20034;-76
2020/12/14 08:16:47;;;;;;;12.52;6.60;;;5.90;91.60;;;;;;4997508;28;20164;-76
2020/12/14 08:19:21;;;;;;;10.48;6.32;;;5.90;91.60;;;;;;4985058;28;20477;-75
2020/12/14 08:22:12;;;;;;;10.10;6.53;;;5.80;91.50;;;;;;4992189;28;20101;-75
2020/12/14 08:24:39;;;;;;;10.23;7.00;;;5.90;91.50;;;;;;4975564;28;20486;-76
2020/12/14 08:27:23;;;;;;;11.82;6.63;;;5.80;91.50;;;;;;4996786;28;20037;-75
2020/12/14 08:30:00;;;;;;;10.70;6.32;;;5.90;91.60;;;;;;5009547;28;20025;-75
2020/12/14 08:32:26;;;;;;;10.98;6.60;;;5.90;91.60;;;;;;5012486;28;20087;-76
2020/12/14 08:34:51;;;;;;;9.77;6.03;;;5.90;91.60;;;;;;5003196;28;20112;-76
2020/12/14 08:37:20;;;;;;;11.57;5.75;;;5.90;91.50;;;;;;4997400;28;20037;-76
2020/12/14 08:40:00;;;;;;;9.90;6.25;;;5.90;91.40;;;;;;5001807;28;20025;-75
2020/12/14 08:42:29;;;;;;;8.90;5.20;;;5.90;91.50;;;;;;5009711;28;20537;-74
2020/12/14 08:45:14;;;;;;;10.38;5.70;;;5.90;91.50;;;;;;5007131;28;20512;-75
2020/12/14 08:47:42;;;;;;;9.85;5.93;;;6.00;91.30;;;;;;4996258;28;20049;-75
2020/12/14 08:50:11;;;;;;;10.43;6.13;;;6.00;91.20;;;;;;5011105;28;20036;-73
2020/12/14 08:52:37;;;;;;;8.27;5.30;;;6.00;91.20;;;;;;4994984;28;20041;-74
2020/12/14 08:55:04;;;;;;;9.32;5.70;;;6.00;91.30;;;;;;4992777;28;20263;-75
2020/12/14 08:57:31;;;;;;;10.93;6.20;;;6.00;91.20;;;;;;5010409;28;20022;-76
2020/12/14 09:00:12;;;;;;;11.85;6.05;;;6.00;91.10;;;;;;5008477;28;20117;-75
2020/12/14 09:02:38;;;;;;;8.50;5.78;;;6.10;91.20;;;;;;4991336;28;20030;-76
2020/12/14 09:05:18;;;;;;;7.85;5.53;;;6.00;91.20;;;;;;4992228;28;20429;-75
2020/12/14 09:07:44;;;;;;;11.55;6.15;;;6.10;91.10;;;;;;5005796;28;20026;-75
2020/12/14 09:10:26;;;;;;;10.18;5.95;;;6.10;91.00;;;;;;4993309;28;20034;-75
2020/12/14 09:13:03;;;;;;;9.77;5.30;;;6.10;91.10;;;;;;4997519;28;20030;-73
2020/12/14 09:15:30;;;;;;;8.25;5.25;;;6.10;91.00;;;;;;4985836;28;20816;-75
2020/12/14 09:18:05;;;;;;;9.45;5.45;;;6.20;90.90;;;;;;5014890;28;20025;-74
2020/12/14 09:20:33;;;;;;;8.15;5.30;;;6.20;90.90;;;;;;5011690;28;20022;-75
2020/12/14 09:22:58;;;;;;;8.45;5.65;;;6.20;91.00;;;;;;4995243;28;20044;-75
2020/12/14 09:25:24;;;;;;;9.85;5.60;;;6.10;91.00;;;;;;4996370;28;20105;-74
2020/12/14 09:27:50;;;;;;;8.98;5.57;;;6.20;91.00;;;;;;4992909;28;20450;-74
2020/12/14 09:30:15;;;;;;;10.85;5.22;;;6.30;90.80;;;;;;4999350;28;20034;-75
2020/12/14 09:32:41;;;;;;;9.10;5.55;;;6.20;90.80;;;;;;4971102;28;20047;-76
2020/12/14 09:35:07;;;;;;;10.10;5.90;;;6.20;91.00;;;;;;5010605;28;20037;-76
2020/12/14 09:37:32;;;;;;;11.05;5.72;;;6.30;91.00;;;;;;5008303;28;20140;-75
2020/12/14 09:40:01;;;;;;;9.75;5.50;;;6.30;90.90;;;;;;4989717;28;20033;-75
2020/12/14 09:42:28;;;;;;;8.60;5.15;;;6.30;91.00;;;;;;5005797;28;20033;-76
2020/12/14 09:44:56;;;;;;;8.50;5.18;;;6.30;91.20;;;;;;4995443;28;20041;-76
2020/12/14 09:47:22;;;;;;;7.90;4.93;;;6.30;91.00;;;;;;4994216;28;20037;-75
2020/12/14 09:49:48;;;;;;;9.77;5.28;;;6.30;90.90;;;;;;4995810;28;20022;-75
2020/12/14 09:52:13;;;;;;;7.72;4.85;;;6.30;91.00;;;;;;4981048;28;20088;-76
2020/12/14 09:54:39;;;;;;;8.98;4.63;;;6.40;91.00;;;;;;4976927;28;20034;-74
2020/12/14 09:57:08;;;;;;;9.75;5.57;;;6.40;91.20;;;;;;4995039;28;20034;-75
2020/12/14 09:59:34;;;;;;;6.25;4.50;;;6.50;91.40;;;;;;4993212;28;20113;-75
2020/12/14 10:01:59;;;;;;;8.75;4.80;;;6.50;91.20;;;;;;4973432;28;20121;-76
2020/12/14 10:04:25;;;;;;;10.25;4.70;;;6.50;91.50;;;;;;4978979;28;20388;-75
2020/12/14 10:06:51;;;;;;;9.48;5.03;;;6.50;91.70;;;;;;5011910;28;21325;-75
2020/12/14 10:09:16;;;;;;;9.15;4.93;;;6.50;92.00;;;;;;5009884;28;20038;-75
2020/12/14 10:11:42;;;;;;;11.48;4.80;;;6.50;92.10;;;;;;5011267;28;20107;-76
2020/12/14 10:14:08;;;;;;;10.02;5.63;;;6.60;92.20;;;;;;5011115;28;20497;-77
2020/12/14 10:16:36;;;;;;;7.50;4.50;;;6.60;92.50;;;;;;4976926;28;20167;-75
2020/12/14 10:19:02;;;;;;;8.18;5.05;;;6.50;92.80;;;;;;4996285;28;20105;-75
2020/12/14 10:21:27;;;;;;;9.75;4.93;;;6.40;93.10;;;;;;4989979;28;20029;-75
2020/12/14 10:23:53;;;;;;;10.38;5.00;;;6.40;93.30;;;;;;4975212;28;20044;-74
2020/12/14 10:26:20;;;;;;;11.05;5.38;;;6.40;93.50;;;;;;4992487;28;20018;-75
2020/12/14 10:28:46;;;;;;;11.13;5.00;;;6.40;93.80;;;;;;5009541;28;20153;-75
2020/12/14 10:31:12;;;;;;;9.30;5.07;;;6.40;93.70;;;;;;4990789;28;20050;-75
2020/12/14 10:33:38;;;;;;;11.98;6.15;;;6.40;94.00;;;;;;4991693;28;20026;-74
2020/12/14 10:36:15;;;;;;;11.40;6.32;;;6.30;93.90;;;;;;5008919;28;20474;-74
2020/12/14 10:38:41;;;;;;;10.43;6.10;;;6.30;94.20;;;;;;4992434;28;20022;-75
2020/12/14 10:41:06;;;;;;;10.48;5.72;;;6.30;94.40;;;;;;5007664;28;20037;-75
2020/12/14 10:43:32;;;;;;;11.35;4.93;;;6.30;94.40;;;;;;4992045;28;20030;-73
2020/12/14 10:45:58;;;;;;;7.88;5.15;;;6.30;94.40;;;;;;4974638;28;20075;-74
2020/12/14 10:48:24;;;;;;;8.68;5.43;;;6.30;94.40;;;;;;4982148;28;20509;-74
2020/12/14 10:50:50;;;;;;;10.75;5.78;;;6.30;94.50;;;;;;4992601;28;20025;-74
2020/12/14 10:53:16;;;;;;;9.77;5.90;;;6.30;94.50;;;;;;5011420;28;20076;-74
2020/12/14 10:55:41;;;;;;;9.20;5.03;;;6.30;94.60;;;;;;4990116;28;20034;-75
2020/12/14 10:58:07;;;;;;;10.75;5.63;;;6.40;94.90;;;;;;4991909;28;20371;-74
2020/12/14 11:00:33;;;;;;;10.38;5.70;;;6.40;94.90;;;;;;4994131;28;20022;-75
2020/12/14 11:02:59;;;;;;;9.50;5.25;;;6.40;95.00;;;;;;5010113;28;20040;-75
2020/12/14 11:05:25;;;;;;;8.70;4.85;;;6.30;95.10;;;;;;5010128;28;20033;-74
2020/12/14 11:07:51;;;;;;;10.43;5.80;;;6.40;95.00;;;;;;4976870;28;20033;-74
2020/12/14 11:10:16;;;;;;;9.57;4.88;;;6.40;94.90;;;;;;5027168;22;20117;-76
2020/12/14 11:12:42;;;;;;;8.20;5.03;;;6.40;95.00;;;;;;5023073;28;20110;-75
2020/12/14 11:15:09;;;;;;;8.85;5.60;;;6.40;94.90;;;;;;5018317;28;20029;-76
2020/12/14 11:17:36;;;;;;;8.50;5.32;;;6.40;95.30;;;;;;5007669;28;20465;-75
2020/12/14 11:20:04;;;;;;;9.68;5.05;;;6.40;95.30;;;;;;5009614;28;20021;-75
2020/12/14 11:22:30;;;;;;;10.90;5.65;;;6.40;95.50;;;;;;4998298;28;20029;-75
2020/12/14 11:24:55;;;;;;;14.80;6.30;;;6.40;95.70;;;;;;5020726;28;20038;-75
2020/12/14 11:27:21;;;;;;;11.55;5.78;;;6.40;95.70;;;;;;5009299;28;20100;-75
2020/12/14 11:29:47;;;;;;;8.18;4.97;;;6.40;95.80;;;;;;5024788;28;20026;-75
2020/12/14 11:32:13;;;;;;;8.85;5.03;;;6.40;95.90;;;;;;5004124;28;20496;-75
2020/12/14 11:34:39;;;;;;;7.68;4.80;;;6.40;95.80;;;;;;5025731;28;20121;-75
2020/12/14 11:37:04;;;;;;;10.55;5.35;;;6.50;95.80;;;;;;5023227;28;20515;-75
2020/12/14 11:39:30;;;;;;;9.30;5.85;;;6.40;95.80;;;;;;5020783;28;20034;-76
2020/12/14 11:41:56;;;;;;;10.40;5.07;;;6.40;96.10;;;;;;5022916;28;20031;-78
2020/12/14 11:44:22;;;;;;;10.50;5.53;;;6.50;96.10;;;;;;5007420;28;20590;-74
2020/12/14 11:46:51;;;;;;;9.35;5.05;;;6.40;96.00;;;;;;5025131;28;20026;-76
2020/12/14 11:49:20;;;;;;;8.93;5.35;;;6.50;96.40;;;;;;5027688;28;20049;-75
2020/12/14 11:51:47;;;;;;;10.70;5.65;;;6.50;96.00;;;;;;5026969;28;20030;-76
2020/12/14 11:54:13;;;;;;;10.52;6.13;;;6.50;96.00;;;;;;5024003;28;20495;-75
2020/12/14 11:56:39;;;;;;;11.02;5.18;;;6.50;95.90;;;;;;5026736;28;20025;-75
2020/12/14 11:59:05;;;;;;;11.10;5.55;;;6.50;95.90;;;;;;5019960;28;20026;-74
2020/12/14 12:01:31;;;;;;;9.55;5.18;;;6.50;96.00;;;;;;5021167;28;20045;-74
2020/12/14 12:03:57;;;;;;;17.42;6.15;;;6.50;96.00;;;;;;5028139;28;20076;-76
2020/12/14 12:06:27;;;;;;;9.00;5.70;;;6.60;96.10;;;;;;5016714;28;20025;-75
2020/12/14 12:08:54;;;;;;;12.25;5.45;;;6.50;96.00;;;;;;5019011;28;20116;-73
2020/12/14 12:11:20;;;;;;;9.05;5.32;;;6.60;96.00;;;;;;4992902;28;20048;-75
2020/12/14 12:13:46;;;;;;;10.00;5.88;;;6.60;96.20;;;;;;5028177;28;20124;-74
2020/12/14 12:16:12;;;;;;;9.60;5.55;;;6.70;96.20;;;;;;5027933;28;20034;-75
2020/12/14 12:18:39;;;;;;;10.82;5.75;;;6.70;96.10;;;;;;5025895;28;20032;-74
2020/12/14 12:21:06;;;;;;;9.93;5.68;;;6.70;96.10;;;;;;5012056;28;20032;-74
2020/12/14 12:23:31;;;;;;;13.27;5.75;;;6.70;95.90;;;;;;5031548;28;20545;-76
2020/12/14 12:25:57;;;;;;;9.63;5.47;;;6.70;96.00;;;;;;5026576;28;20121;-76
2020/12/14 12:28:23;;;;;;;11.98;6.13;;;6.70;96.10;;;;;;5026030;28;20030;-76
2020/12/14 12:30:48;;;;;;;10.65;5.82;;;6.70;96.00;;;;;;5026164;28;20432;-74
2020/12/14 12:33:14;;;;;;;11.85;5.70;;;6.70;96.00;;;;;;5009930;28;20389;-75
2020/12/14 12:35:40;;;;;;;11.45;5.43;;;6.80;96.50;;;;;;5027960;28;20033;-75
2020/12/14 12:38:05;;;;;;;13.00;5.95;;;6.90;96.00;;;;;;5010992;28;20080;-74
2020/12/14 12:40:31;;;;;;;15.05;6.03;;;6.80;96.00;;;;;;5025478;28;20060;-75
2020/12/14 12:42:57;;;;;;;307.05;143.05;;;6.90;95.90;;;;;;5011919;28;20125;-75
2020/12/14 12:45:23;;;;;;;38.03;20.42;;;6.90;96.00;;;;;;5008730;28;20040;-75
2020/12/14 12:47:48;;;;;;;26.40;14.10;;;6.80;96.10;;;;;;5011143;28;20304;-74
2020/12/14 12:50:14;;;;;;;11.73;5.65;;;6.80;96.10;;;;;;5019871;28;20037;-76